createdAt,value
2023-05-03T00:01:17.670Z,1
2023-05-03T00:05:49.207Z,1.3
2023-05-03T00:08:36.720Z,1.3
2023-05-03T00:11:24.159Z,1.1
2023-05-03T00:15:55.703Z,1.3
2023-05-03T00:20:27.246Z,1.2
2023-05-03T00:21:57.758Z,1.3
2023-05-03T00:23:28.265Z,1.3
2023-05-03T00:24:45.241Z,0.9
2023-05-03T00:26:02.218Z,1
2023-05-03T00:30:33.752Z,1.1
2023-05-03T00:35:05.277Z,1.2
2023-05-03T00:38:06.294Z,1.3
2023-05-03T00:39:36.815Z,1.2
2023-05-03T00:40:53.349Z,1.1
2023-05-03T00:45:11.355Z,1.1
2023-05-03T00:48:12.383Z,1
2023-05-03T00:49:42.891Z,1.1
2023-05-03T00:54:14.415Z,1.1
2023-05-03T00:57:01.902Z,1.1
2023-05-03T00:59:49.400Z,1.3
2023-05-03T01:08:52.491Z,1.2
2023-05-03T01:13:10.501Z,1.1
2023-05-03T01:14:27.475Z,1
2023-05-03T01:18:58.991Z,1.1
2023-05-03T01:22:00.008Z,0.9
2023-05-03T01:23:30.517Z,1.3
2023-05-03T01:28:02.080Z,1.1
2023-05-03T01:29:19.023Z,1.4
2023-05-03T01:32:06.523Z,1.2
2023-05-03T01:33:37.051Z,1.3
2023-05-03T01:38:08.557Z,1.1
2023-05-03T01:41:09.595Z,1.1
2023-05-03T01:42:40.091Z,1
2023-05-03T01:45:27.593Z,1
2023-05-03T01:46:44.552Z,1
2023-05-03T01:48:15.079Z,1.1
2023-05-03T01:51:16.095Z,1.3
2023-05-03T01:52:46.597Z,1.4
2023-05-03T01:55:47.626Z,1.1
2023-05-03T01:57:18.140Z,1
2023-05-03T02:01:36.160Z,1.1
2023-05-03T02:02:53.118Z,0.9
2023-05-03T02:05:54.136Z,0.8
2023-05-03T02:07:24.636Z,1.2
2023-05-03T02:11:56.204Z,1.1
2023-05-03T02:14:57.211Z,1
2023-05-03T02:16:27.725Z,1.1
2023-05-03T02:17:44.255Z,1.1
2023-05-03T02:22:02.246Z,1
2023-05-03T02:25:03.274Z,0.9
2023-05-03T02:26:33.781Z,1.1
2023-05-03T02:29:34.000Z,1.2
2023-05-03T02:31:05.404Z,1
2023-05-03T02:34:01.022Z,1.3
2023-05-03T02:35:17.968Z,1.3
2023-05-03T02:36:48.474Z,1
2023-05-03T02:39:49.503Z,1.2
2023-05-03T02:41:20.022Z,0.9
2023-05-03T02:44:21.045Z,1
2023-05-03T02:45:51.556Z,1
2023-05-03T02:50:09.578Z,1
2023-05-03T02:51:26.082Z,1.2
2023-05-03T02:54:27.120Z,1.1
2023-05-03T02:55:57.625Z,1
2023-05-03T02:58:58.653Z,1.1
2023-05-03T03:00:29.162Z,1.1
2023-05-03T03:03:30.195Z,1
2023-05-03T03:05:00.692Z,1
2023-05-03T03:06:17.663Z,1.2
2023-05-03T03:10:35.665Z,1.2
2023-05-03T03:13:36.701Z,0.9
2023-05-03T03:15:07.202Z,1.4
2023-05-03T03:18:08.224Z,1.1
2023-05-03T03:19:38.733Z,1
2023-05-03T03:22:26.229Z,1.1
2023-05-03T03:25:13.736Z,0.9
2023-05-03T03:29:45.239Z,1
2023-05-03T03:32:46.270Z,1.3
2023-05-03T03:34:16.779Z,1.1
2023-05-03T03:37:17.796Z,1
2023-05-03T03:38:34.786Z,0.9
2023-05-03T03:39:51.758Z,1.1
2023-05-03T03:42:52.772Z,1.1
2023-05-03T03:44:23.279Z,1
2023-05-03T03:48:54.824Z,1
2023-05-03T03:51:55.848Z,1
2023-05-03T03:53:26.363Z,1
2023-05-03T03:54:43.358Z,1
2023-05-03T03:57:30.807Z,1.2
2023-05-03T03:59:01.325Z,1
2023-05-03T04:02:02.359Z,1.1
2023-05-03T04:03:32.864Z,1.1
2023-05-03T04:06:33.891Z,0.8
2023-05-03T04:08:04.393Z,0.9
2023-05-03T04:10:51.877Z,1.3
2023-05-03T04:13:39.376Z,1.1
2023-05-03T04:18:10.906Z,1.1
2023-05-03T04:22:42.447Z,1
2023-05-03T04:25:43.465Z,0.9
2023-05-03T04:27:00.434Z,1.1
2023-05-03T04:28:16.975Z,1
2023-05-03T04:31:17.994Z,1.2
2023-05-03T04:32:48.501Z,1.1
2023-05-03T04:37:20.047Z,1.1
2023-05-03T04:40:21.068Z,1.1
2023-05-03T04:41:51.587Z,1.2
2023-05-03T04:43:08.584Z,1.2
2023-05-03T04:47:26.555Z,1.1
2023-05-03T04:51:58.082Z,1
2023-05-03T04:56:29.626Z,0.9
2023-05-03T04:59:17.112Z,1
2023-05-03T05:02:04.596Z,1.1
2023-05-03T05:06:36.158Z,1.1
2023-05-03T05:09:37.158Z,1.1
2023-05-03T05:11:07.652Z,1
2023-05-03T05:15:25.661Z,1.1
2023-05-03T05:16:42.630Z,1
2023-05-03T05:19:43.650Z,1
2023-05-03T05:22:44.679Z,2.2
2023-05-03T05:24:15.185Z,2.8
2023-05-03T05:25:45.692Z,2.8
2023-05-03T05:27:16.211Z,2.6
2023-05-03T05:28:46.722Z,2.4
2023-05-03T05:30:17.228Z,2.3
2023-05-03T05:31:34.244Z,3
2023-05-03T05:32:51.186Z,2.8
2023-05-03T05:34:21.699Z,2.9
2023-05-03T05:37:22.713Z,2.7
2023-05-03T05:38:53.224Z,3.3
2023-05-03T05:40:23.777Z,3.5
2023-05-03T05:41:54.252Z,3.4
2023-05-03T05:43:24.769Z,3.1
2023-05-03T05:44:55.274Z,3.3
2023-05-03T05:46:25.785Z,3.6
2023-05-03T05:47:42.763Z,3.5
2023-05-03T05:48:59.747Z,3
2023-05-03T05:50:30.252Z,3.6
2023-05-03T05:52:00.771Z,3.7
2023-05-03T05:53:31.276Z,3
2023-05-03T05:55:01.776Z,3.3
2023-05-03T05:56:32.304Z,3.3
2023-05-03T05:58:02.810Z,3.2
2023-05-03T05:59:33.317Z,3.3
2023-05-03T06:01:03.833Z,2.6
2023-05-03T06:02:34.333Z,3
2023-05-03T06:03:51.325Z,3.1
2023-05-03T06:05:08.291Z,2.9
2023-05-03T06:06:38.807Z,3.4
2023-05-03T06:08:09.319Z,3.1
2023-05-03T06:09:39.834Z,3.2
2023-05-03T06:12:40.852Z,2.9
2023-05-03T06:14:11.360Z,3
2023-05-03T06:15:41.879Z,2.9
2023-05-03T06:17:12.378Z,3
2023-05-03T06:18:42.903Z,2.8
2023-05-03T06:19:59.903Z,2.7
2023-05-03T06:27:18.898Z,2.7
2023-05-03T06:30:19.919Z,2.9
2023-05-03T06:31:50.420Z,2.7
2023-05-03T06:33:20.932Z,3.1
2023-05-03T06:34:51.438Z,2.5
2023-05-03T06:40:26.429Z,2.8
2023-05-03T06:44:57.943Z,2.6
2023-05-03T06:46:28.459Z,3.3
2023-05-03T06:49:29.495Z,3
2023-05-03T06:52:16.981Z,2.5
2023-05-03T06:53:33.942Z,2.5
2023-05-03T06:55:04.469Z,2.9
2023-05-03T06:56:34.971Z,2.7
2023-05-03T06:58:05.485Z,2.9
2023-05-03T06:59:36.008Z,2.9
2023-05-03T07:02:37.027Z,2.6
2023-05-03T07:05:38.034Z,2.6
2023-05-03T07:07:08.547Z,2
2023-05-03T07:08:25.530Z,2.4
2023-05-03T07:11:13.000Z,2.3
2023-05-03T07:12:43.563Z,2.3
2023-05-03T07:14:14.038Z,2.3
2023-05-03T07:15:44.554Z,2.3
2023-05-03T07:17:15.070Z,2.6
2023-05-03T07:18:45.568Z,2.4
2023-05-03T07:24:34.075Z,2.2
2023-05-03T07:27:29.328Z,2.3
2023-05-03T07:28:59.829Z,2.2
2023-05-03T07:30:30.344Z,2.7
2023-05-03T07:32:00.941Z,1.9
2023-05-03T07:33:39.562Z,2.1
2023-05-03T07:35:10.080Z,2.5
2023-05-03T07:36:40.587Z,2.5
2023-05-03T07:38:11.108Z,2.3
2023-05-03T07:39:39.209Z,2.6
2023-05-03T07:42:26.698Z,2.7
2023-05-03T07:43:57.219Z,2.8
2023-05-03T07:45:27.739Z,2.3
2023-05-03T07:48:28.741Z,2.4
2023-05-03T07:51:29.773Z,2.8
2023-05-03T07:53:00.289Z,2.9
2023-05-03T07:54:30.808Z,2.2
2023-05-03T07:58:35.259Z,2.7
2023-05-03T08:00:05.765Z,3.1
2023-05-03T08:01:36.276Z,2.8
2023-05-03T08:03:06.789Z,2.4
2023-05-03T08:06:07.822Z,2.7
2023-05-03T08:07:38.332Z,2.8
2023-05-03T08:09:08.849Z,2.6
2023-05-03T08:10:39.359Z,2.5
2023-05-03T08:11:56.339Z,2.4
2023-05-03T08:13:13.310Z,2.3
2023-05-03T08:16:14.333Z,2.9
2023-05-03T08:17:44.836Z,2.6
2023-05-03T08:19:15.338Z,2.2
2023-05-03T08:20:45.861Z,2.4
2023-05-03T08:22:16.366Z,2
2023-05-03T08:23:46.891Z,2.3
2023-05-03T08:25:17.389Z,2.7
2023-05-03T08:28:04.888Z,2
2023-05-03T08:29:21.862Z,2.1
2023-05-03T08:30:52.359Z,1.8
2023-05-03T08:32:22.872Z,2.3
2023-05-03T08:35:23.911Z,1.7
2023-05-03T08:36:54.420Z,2.2
2023-05-03T08:38:24.922Z,2.2
2023-05-03T08:39:55.432Z,1.9
2023-05-03T08:42:56.459Z,2.3
2023-05-03T08:44:13.474Z,2.3
2023-05-03T08:45:30.418Z,2.4
2023-05-03T08:47:00.918Z,2.2
2023-05-03T08:50:01.950Z,2.2
2023-05-03T08:51:32.455Z,2.5
2023-05-03T08:53:02.967Z,2.4
2023-05-03T08:54:33.470Z,2
2023-05-03T08:56:03.986Z,2
2023-05-03T08:57:34.513Z,2.2
2023-05-03T09:00:22.030Z,2.5
2023-05-03T09:01:38.520Z,2.2
2023-05-03T09:03:09.044Z,2.1
2023-05-03T09:04:39.552Z,2
2023-05-03T09:06:10.067Z,1.9
2023-05-03T09:07:40.566Z,2
2023-05-03T09:09:11.127Z,2
2023-05-03T09:10:41.603Z,2
2023-05-03T09:12:12.120Z,1.9
2023-05-03T09:13:42.617Z,1.8
2023-05-03T09:15:13.129Z,2.1
2023-05-03T09:16:30.103Z,1.8
2023-05-03T09:17:47.079Z,1.8
2023-05-03T09:19:17.595Z,2
2023-05-03T09:20:48.099Z,2.1
2023-05-03T09:22:18.621Z,1.8
2023-05-03T09:23:49.139Z,1.9
2023-05-03T09:25:19.638Z,1.8
2023-05-03T09:26:50.148Z,1.7
2023-05-03T09:28:20.669Z,1.6
2023-05-03T09:29:51.178Z,1.7
2023-05-03T09:31:21.683Z,1.9
2023-05-03T09:32:38.701Z,1.8
2023-05-03T09:35:26.139Z,1.9
2023-05-03T09:36:56.656Z,1.9
2023-05-03T09:38:27.210Z,2.5
2023-05-03T09:39:57.684Z,1.9
2023-05-03T09:41:28.200Z,1.9
2023-05-03T09:44:29.223Z,2.1
2023-05-03T09:45:59.734Z,2
2023-05-03T09:48:47.217Z,2.4
2023-05-03T09:50:04.177Z,1.9
2023-05-03T09:51:34.691Z,2
2023-05-03T09:53:05.212Z,2.2
2023-05-03T09:54:35.721Z,2.2
2023-05-03T09:57:36.740Z,1.9
2023-05-03T09:59:07.261Z,2.1
2023-05-03T10:00:37.761Z,2.8
2023-05-03T10:03:38.798Z,3
2023-05-03T10:04:55.808Z,3.4
2023-05-03T10:07:42.817Z,2.5
2023-05-03T10:09:13.325Z,2.7
2023-05-03T10:10:43.838Z,3.1
2023-05-03T10:12:14.351Z,2.5
2023-05-03T10:13:44.857Z,2.9
2023-05-03T10:15:15.367Z,2.7
2023-05-03T10:18:16.401Z,2.6
2023-05-03T10:19:46.905Z,3.3
2023-05-03T10:23:51.377Z,2.9
2023-05-03T10:25:21.884Z,2.1
2023-05-03T10:26:52.391Z,2.2
2023-05-03T10:28:22.899Z,2.3
2023-05-03T10:29:53.414Z,2.8
2023-05-03T10:32:54.446Z,2.2
2023-05-03T10:34:24.958Z,2.3
2023-05-03T10:35:55.471Z,2.8
2023-05-03T10:37:12.480Z,2.3
2023-05-03T10:38:29.400Z,2
2023-05-03T10:39:59.918Z,2.4
2023-05-03T10:41:30.429Z,2.1
2023-05-03T10:43:00.938Z,2.3
2023-05-03T10:44:31.457Z,2.4
2023-05-03T10:46:01.960Z,2.5
2023-05-03T10:47:32.476Z,2.9
2023-05-03T10:49:02.988Z,2.9
2023-05-03T10:50:33.502Z,2.8
2023-05-03T10:52:04.012Z,3.1
2023-05-03T10:53:21.034Z,2.8
2023-05-03T10:54:37.605Z,2.6
2023-05-03T10:56:08.110Z,2.6
2023-05-03T10:57:38.629Z,5.1
2023-05-03T10:59:09.134Z,2
2023-05-03T11:00:39.664Z,2.7
2023-05-03T11:02:10.162Z,3.1
2023-05-03T11:03:40.681Z,3.3
2023-05-03T11:05:11.184Z,2.6
2023-05-03T11:06:41.710Z,3.1
2023-05-03T11:08:12.218Z,3.4
2023-05-03T11:09:29.195Z,2.6
2023-05-03T11:10:45.802Z,2.8
2023-05-03T11:12:16.319Z,3.1
2023-05-03T11:13:46.840Z,2.5
2023-05-03T11:15:17.345Z,2.8
2023-05-03T11:16:47.858Z,3.1
2023-05-03T11:18:18.364Z,2.4
2023-05-03T11:19:48.884Z,2.3
2023-05-03T11:21:19.391Z,3.1
2023-05-03T11:22:49.910Z,3.3
2023-05-03T11:24:20.424Z,2.1
2023-05-03T11:25:37.434Z,2.3
2023-05-03T11:26:54.362Z,2.5
2023-05-03T11:28:24.871Z,2.6
2023-05-03T11:29:55.390Z,2.8
2023-05-03T11:32:56.405Z,2.2
2023-05-03T11:34:26.913Z,2.6
2023-05-03T11:35:57.421Z,3.4
2023-05-03T11:37:27.952Z,2.5
2023-05-03T11:38:58.454Z,2.5
2023-05-03T11:40:28.966Z,2.8
2023-05-03T11:41:45.987Z,3
2023-05-03T11:43:02.914Z,2.7
2023-05-03T11:44:33.430Z,3
2023-05-03T11:46:03.928Z,2.8
2023-05-03T11:47:34.442Z,3.2
2023-05-03T11:49:04.957Z,2.5
2023-05-03T11:50:35.476Z,3.1
2023-05-03T11:52:05.977Z,3
2023-05-03T11:53:36.505Z,2.7
2023-05-03T11:55:07.010Z,2.6
2023-05-03T11:56:37.522Z,2.6
2023-05-03T11:57:54.540Z,2.7
2023-05-03T11:59:11.470Z,2.6
2023-05-03T12:03:32.416Z,2.6
2023-05-03T12:04:48.548Z,3.1
2023-05-03T12:06:04.685Z,2.2
2023-05-03T12:07:20.818Z,3
2023-05-03T12:08:36.964Z,2.3
2023-05-03T12:09:53.096Z,2.6
2023-05-03T12:11:36.750Z,3.8
2023-05-03T12:12:52.896Z,3
2023-05-03T12:14:09.024Z,3.2
2023-05-03T12:15:25.163Z,3
2023-05-03T12:16:41.307Z,2.6
2023-05-03T12:18:10.434Z,2.8
2023-05-03T12:19:26.583Z,3
2023-05-03T12:20:42.720Z,2.4
2023-05-03T12:21:58.854Z,2.9
2023-05-03T12:23:14.975Z,2.2
2023-05-03T12:24:31.118Z,2.8
2023-05-03T12:25:47.257Z,2.7
2023-05-03T12:27:03.389Z,2.8
2023-05-03T12:28:19.528Z,3
2023-05-03T12:29:35.667Z,2.4
2023-05-03T12:30:51.806Z,2.9
2023-05-03T12:32:07.932Z,2.5
2023-05-03T12:33:24.071Z,2.5
2023-05-03T12:34:40.198Z,2.3
2023-05-03T12:35:56.400Z,2.5
2023-05-03T12:37:12.464Z,2.5
2023-05-03T12:38:28.613Z,2.3
2023-05-03T12:39:44.750Z,2.4
2023-05-03T12:41:00.888Z,2.4
2023-05-03T12:42:17.023Z,2.3
2023-05-03T12:44:49.291Z,2.4
2023-05-03T12:46:05.429Z,2.3
2023-05-03T12:47:21.554Z,2
2023-05-03T12:48:37.683Z,2.5
2023-05-03T12:49:53.825Z,2.2
2023-05-03T12:51:09.963Z,2.1
2023-05-03T12:52:26.088Z,2.2
2023-05-03T12:53:42.231Z,2.1
2023-05-03T12:54:58.363Z,2.2
2023-05-03T12:56:14.496Z,2.4
2023-05-03T12:57:30.629Z,2.5
2023-05-03T12:58:46.771Z,2.5
2023-05-03T13:00:02.899Z,2.3
2023-05-03T13:01:19.045Z,2
2023-05-03T13:02:35.183Z,2.4
2023-05-03T13:03:51.306Z,2.2
2023-05-03T13:05:07.451Z,2
2023-05-03T13:06:23.577Z,2.4
2023-05-03T13:07:39.724Z,2.4
2023-05-03T13:10:11.993Z,2.4
2023-05-03T13:11:28.131Z,2.2
2023-05-03T13:12:44.256Z,2.2
2023-05-03T13:14:00.394Z,1.9
2023-05-03T13:15:16.528Z,2.1
2023-05-03T13:16:32.674Z,1.8
2023-05-03T13:17:48.793Z,1.9
2023-05-03T13:19:04.945Z,2.3
2023-05-03T13:20:21.080Z,2.1
2023-05-03T13:22:53.345Z,2.2
2023-05-03T13:24:09.484Z,2.2
2023-05-03T13:25:25.612Z,2.1
2023-05-03T13:26:41.813Z,1.9
2023-05-03T13:27:57.879Z,2.1
2023-05-03T13:30:30.165Z,2.1
2023-05-03T13:31:45.315Z,2
2023-05-03T13:33:00.473Z,1.9
2023-05-03T13:34:16.609Z,2
2023-05-03T13:35:32.743Z,2.3
2023-05-03T14:02:31.310Z,1.7
2023-05-03T14:03:47.449Z,2.1
2023-05-03T14:05:03.581Z,2.6
2023-05-03T14:06:19.726Z,2.2
2023-05-03T14:08:51.995Z,1.8
2023-05-03T14:10:08.197Z,2.1
2023-05-03T14:11:24.271Z,2.8
2023-05-03T14:12:40.406Z,1.6
2023-05-03T14:13:56.539Z,2
2023-05-03T14:15:12.663Z,2
2023-05-03T14:16:28.803Z,1.9
2023-05-03T14:17:44.941Z,1.9
2023-05-03T14:19:01.070Z,1.5
2023-05-03T14:21:33.356Z,1.6
2023-05-03T14:22:48.577Z,1.4
2023-05-03T14:25:19.864Z,1.8
2023-05-03T14:26:35.923Z,1.6
2023-05-03T14:27:52.072Z,1.9
2023-05-03T14:29:08.210Z,1.9
2023-05-03T14:30:24.340Z,1.9
2023-05-03T14:31:40.478Z,1.7
2023-05-03T14:34:12.735Z,1.9
2023-05-03T14:36:45.016Z,1.8
2023-05-03T14:38:01.154Z,2
2023-05-03T14:39:17.281Z,1.6
2023-05-03T14:40:32.444Z,1.8
2023-05-03T14:41:47.608Z,1.6
2023-05-03T14:43:03.746Z,1.7
2023-05-03T14:44:19.876Z,1.5
2023-05-03T14:45:36.000Z,1.9
2023-05-03T14:46:52.138Z,1.6
2023-05-03T14:48:08.344Z,2
2023-05-03T14:49:24.406Z,1.9
2023-05-03T14:50:40.535Z,1.7
2023-05-03T14:51:56.690Z,1.8
2023-05-03T14:53:12.828Z,1.5
2023-05-03T14:54:27.980Z,2.1
2023-05-03T14:55:43.129Z,1.5
2023-05-03T14:56:59.261Z,2
2023-05-03T14:59:31.543Z,1.9
2023-05-03T15:00:47.678Z,1.5
2023-05-03T15:02:03.808Z,1.6
2023-05-03T15:03:19.936Z,1.5
2023-05-03T15:04:36.083Z,1.4
2023-05-03T15:05:52.210Z,1.5
2023-05-03T15:07:08.339Z,1.7
2023-05-03T15:09:40.613Z,1.7
2023-05-03T15:12:11.910Z,1.6
2023-05-03T15:13:27.146Z,1.4
2023-05-03T15:14:43.209Z,1.5
2023-05-03T15:15:58.371Z,1.4
2023-05-03T15:17:14.504Z,1.5
2023-05-03T15:18:30.626Z,1.6
2023-05-03T15:19:46.778Z,1.5
2023-05-03T15:21:02.907Z,1.5
2023-05-03T15:22:19.034Z,1.7
2023-05-03T15:24:51.306Z,1.6
2023-05-03T15:28:39.711Z,1.4
2023-05-03T15:29:55.850Z,1.5
2023-05-03T15:31:11.980Z,1.7
2023-05-03T15:32:27.149Z,1.6
2023-05-03T15:33:43.278Z,1.5
2023-05-03T15:34:59.406Z,1.4
2023-05-03T15:36:15.549Z,1.7
2023-05-03T15:37:31.673Z,1.4
2023-05-03T15:38:47.809Z,1.5
2023-05-03T15:40:03.948Z,1.5
2023-05-03T15:41:20.090Z,1.4
2023-05-03T15:42:36.226Z,1.6
2023-05-03T15:43:52.362Z,1.5
2023-05-03T15:45:08.499Z,1.8
2023-05-03T15:47:40.752Z,1.3
2023-05-03T15:50:12.044Z,1.6
2023-05-03T15:51:28.255Z,1.4
2023-05-03T15:52:44.317Z,1.6
2023-05-03T15:54:00.453Z,1.3
2023-05-03T15:55:16.586Z,1.4
2023-05-03T15:56:32.717Z,1.5
2023-05-03T15:57:48.865Z,1.6
2023-05-03T15:59:04.992Z,1.5
2023-05-03T16:00:21.133Z,1.3
2023-05-03T16:02:53.404Z,1.7
2023-05-03T16:05:25.682Z,1.8
2023-05-03T16:06:40.829Z,1.5
2023-05-03T16:07:56.951Z,1.5
2023-05-03T16:09:13.086Z,1.4
2023-05-03T16:10:29.234Z,1.7
2023-05-03T16:11:45.369Z,1.3
2023-05-03T16:13:01.510Z,1.5
2023-05-03T16:15:33.772Z,1.1
2023-05-03T16:16:49.914Z,1.6
2023-05-03T16:18:06.031Z,1.4
2023-05-03T16:19:22.170Z,1.5
2023-05-03T16:20:38.309Z,1.4
2023-05-03T16:21:54.450Z,1.2
2023-05-03T16:23:09.603Z,1.6
2023-05-03T16:24:25.732Z,1.4
2023-05-03T16:25:41.878Z,1.4
2023-05-03T16:28:14.149Z,1.5
2023-05-03T16:29:30.279Z,1.7
2023-05-03T16:30:46.402Z,1.6
2023-05-03T16:32:02.540Z,1.2
2023-05-03T16:33:18.681Z,1.5
2023-05-03T16:34:34.826Z,1.4
2023-05-03T16:35:50.960Z,1.5
2023-05-03T16:37:07.080Z,1.4
2023-05-03T16:38:23.230Z,1.5
2023-05-03T16:39:38.383Z,1.3
2023-05-03T16:40:54.516Z,1.7
2023-05-03T16:42:09.743Z,1.1
2023-05-03T16:43:25.809Z,1.7
2023-05-03T16:44:40.960Z,1.4
2023-05-03T16:45:57.094Z,1.6
2023-05-03T16:47:13.224Z,1.5
2023-05-03T16:48:29.357Z,1.4
2023-05-03T16:49:45.497Z,1.4
2023-05-03T16:51:01.640Z,1.4
2023-05-03T16:53:33.903Z,1.2
2023-05-03T16:56:06.168Z,1.4
2023-05-03T16:57:22.316Z,1.1
2023-05-03T16:58:37.467Z,1.3
2023-05-03T16:59:52.628Z,1.7
2023-05-03T17:01:08.752Z,1.5
2023-05-03T17:02:24.893Z,1.4
2023-05-03T17:03:41.035Z,1.3
2023-05-03T17:06:13.292Z,1.3
2023-05-03T17:07:29.510Z,1.6
2023-05-03T17:08:45.566Z,1.2
2023-05-03T17:10:01.713Z,1.5
2023-05-03T17:11:17.837Z,1.5
2023-05-03T17:12:33.977Z,1.3
2023-05-03T17:13:50.108Z,1.2
2023-05-03T17:15:06.251Z,1.4
2023-05-03T17:16:22.387Z,1.3
2023-05-03T17:18:53.662Z,1.2
2023-05-03T17:20:09.880Z,1.1
2023-05-03T17:21:25.947Z,1.3
2023-05-03T17:22:42.075Z,1.1
2023-05-03T17:23:58.221Z,1.4
2023-05-03T17:25:14.338Z,1.3
2023-05-03T17:26:30.492Z,1.2
2023-05-03T17:27:46.618Z,1.5
2023-05-03T17:29:02.753Z,1.2
2023-05-03T17:31:35.024Z,1.2
2023-05-03T17:32:51.160Z,1.1
2023-05-03T17:34:07.295Z,1
2023-05-03T17:36:38.573Z,1.1
2023-05-03T17:37:54.715Z,1.3
2023-05-03T17:39:10.851Z,1.3
2023-05-03T17:40:27.062Z,1
2023-05-03T17:41:43.115Z,1.3
2023-05-03T17:44:15.401Z,1.7
2023-05-03T17:45:31.603Z,1.4
2023-05-03T17:46:47.662Z,1.2
2023-05-03T17:49:19.936Z,1.6
2023-05-03T17:50:36.066Z,1.3
2023-05-03T17:51:51.224Z,1.5
2023-05-03T17:54:23.501Z,1.3
2023-05-03T17:56:55.764Z,1.2
2023-05-03T17:58:11.973Z,1.3
2023-05-03T17:59:28.038Z,1
2023-05-03T18:00:44.244Z,1.1
2023-05-03T18:02:00.293Z,1.3
2023-05-03T18:03:16.432Z,1.3
2023-05-03T18:04:32.578Z,1
2023-05-03T18:05:48.710Z,1.3
2023-05-03T18:07:04.837Z,1.2
2023-05-03T18:09:36.130Z,1.2
2023-05-03T18:10:52.343Z,1.3
2023-05-03T18:12:08.409Z,1.3
2023-05-03T18:14:40.662Z,1.3
2023-05-03T18:15:56.804Z,1.3
2023-05-03T18:17:11.969Z,1.3
2023-05-03T18:18:28.103Z,1.4
2023-05-03T18:19:44.240Z,1.2
2023-05-03T18:22:16.503Z,1.3
2023-05-03T18:23:32.719Z,1.1
2023-05-03T18:24:48.775Z,1.1
2023-05-03T18:26:04.907Z,1.4
2023-05-03T18:27:21.050Z,1.2
2023-05-03T18:28:37.188Z,1
2023-05-03T18:29:53.315Z,1.2
2023-05-03T18:31:09.454Z,1
2023-05-03T18:32:25.580Z,1.2
2023-05-03T18:33:40.740Z,1.4
2023-05-03T18:34:56.870Z,1.3
2023-05-03T18:36:13.088Z,1.2
2023-05-03T18:37:29.151Z,1.3
2023-05-03T18:38:45.280Z,1
2023-05-03T18:40:01.414Z,1.2
2023-05-03T18:41:16.583Z,1
2023-05-03T18:42:31.725Z,1.3
2023-05-03T18:43:47.866Z,1.3
2023-05-03T18:45:03.992Z,1.4
2023-05-03T18:47:36.279Z,1.5
2023-05-03T18:48:52.405Z,1.2
2023-05-03T18:50:08.540Z,1.3
2023-05-03T18:51:24.675Z,1
2023-05-03T18:52:40.808Z,1.3
2023-05-03T18:53:56.953Z,1.1
2023-05-03T18:55:13.073Z,1.3
2023-05-03T18:56:29.213Z,1.5
2023-05-03T18:57:45.357Z,1.2
2023-05-03T18:59:00.496Z,1.3
2023-05-03T19:00:16.643Z,1.1
2023-05-03T19:01:32.855Z,1.2
2023-05-03T19:02:48.904Z,1.1
2023-05-03T19:04:05.042Z,1.2
2023-05-03T19:05:21.182Z,1.3
2023-05-03T19:06:37.322Z,1.1
2023-05-03T19:07:53.445Z,1.1
2023-05-03T19:09:08.694Z,1.2
2023-05-03T19:10:23.775Z,1.2
2023-05-03T19:11:39.895Z,1.1
2023-05-03T19:12:56.026Z,1.2
2023-05-03T19:15:28.301Z,1.2
2023-05-03T19:16:44.437Z,1.3
2023-05-03T19:18:00.578Z,1.4
2023-05-03T19:19:16.715Z,1.1
2023-05-03T19:20:32.849Z,1.4
2023-05-03T19:21:49.063Z,1.1
2023-05-03T19:23:05.116Z,1.3
2023-05-03T19:24:21.256Z,1
2023-05-03T19:25:37.387Z,1.1
2023-05-03T19:28:08.724Z,1.3
2023-05-03T19:29:23.918Z,1.2
2023-05-03T19:30:40.017Z,1.2
2023-05-03T19:31:56.281Z,1.6
2023-05-03T19:33:12.417Z,1.1
2023-05-03T19:34:28.581Z,1.1
2023-05-03T19:35:44.675Z,1.3
2023-05-03T19:38:16.949Z,1
2023-05-03T19:39:33.122Z,1.6
2023-05-03T19:40:49.228Z,1.3
2023-05-03T19:42:05.393Z,1.2
2023-05-03T19:44:37.635Z,1.1
2023-05-03T19:45:52.798Z,1
2023-05-03T19:47:08.929Z,1.3
2023-05-03T19:50:57.328Z,1.2
2023-05-03T19:53:28.626Z,1.1
2023-05-03T19:56:00.884Z,1
2023-05-03T19:57:17.037Z,1.2
2023-05-03T19:58:33.170Z,1.3
2023-05-03T19:59:49.306Z,1
2023-05-03T20:01:05.438Z,1.1
2023-05-03T20:02:21.571Z,1.3
2023-05-03T20:03:37.694Z,1.1
2023-05-03T20:06:09.979Z,1.2
2023-05-03T20:07:26.143Z,1.1
2023-05-03T20:08:41.255Z,1.2
2023-05-03T20:09:57.397Z,1.1
2023-05-03T20:11:13.536Z,1.1
2023-05-03T20:12:29.700Z,1.1
2023-05-03T20:13:45.802Z,1.2
2023-05-03T20:15:01.935Z,1.2
2023-05-03T20:16:18.062Z,1.3
2023-05-03T20:18:50.344Z,1.1
2023-05-03T20:20:06.472Z,1.1
2023-05-03T20:21:22.606Z,1.1
2023-05-03T20:22:38.741Z,1
2023-05-03T20:23:54.878Z,1
2023-05-03T20:25:10.030Z,1.2
2023-05-03T20:26:26.178Z,1.2
2023-05-03T20:28:58.441Z,1.1
2023-05-03T20:31:30.712Z,1.3
2023-05-03T20:34:02.975Z,1.4
2023-05-03T20:35:19.125Z,1.2
2023-05-03T20:36:35.262Z,1.2
2023-05-03T20:37:51.424Z,1.1
2023-05-03T20:39:07.515Z,1.2
2023-05-03T20:41:39.796Z,1.2
2023-05-03T20:44:11.088Z,1.3
2023-05-03T20:46:43.344Z,1.1
2023-05-03T20:47:59.480Z,1.4
2023-05-03T20:49:15.631Z,1.2
2023-05-03T20:50:31.746Z,1.1
2023-05-03T20:51:47.894Z,1.1
2023-05-03T20:54:20.161Z,1
2023-05-03T20:56:52.441Z,1.2
2023-05-03T20:58:08.606Z,1.2
2023-05-03T20:59:24.709Z,1.1
2023-05-03T21:00:39.857Z,1.1
2023-05-03T21:01:55.983Z,1.1
2023-05-03T21:03:12.136Z,1
2023-05-03T21:04:28.253Z,1.2
2023-05-03T21:07:00.534Z,1.1
2023-05-03T21:08:16.705Z,1.1
2023-05-03T21:09:32.794Z,1.2
2023-05-03T21:12:05.076Z,1
2023-05-03T21:13:21.199Z,1.2
2023-05-03T21:14:37.354Z,1.1
2023-05-03T21:15:53.486Z,1.5
2023-05-03T21:17:08.621Z,1.1
2023-05-03T21:19:40.897Z,1.1
2023-05-03T21:20:57.076Z,1.2
2023-05-03T21:24:45.452Z,1.2
2023-05-03T21:26:01.579Z,1.1
2023-05-03T21:27:17.711Z,1.2
2023-05-03T21:28:33.858Z,1.3
2023-05-03T21:31:06.111Z,1.1
2023-05-03T21:32:22.258Z,1.2
2023-05-03T21:33:37.445Z,1.3
2023-05-03T21:34:53.537Z,1.2
2023-05-03T21:36:09.716Z,1.1
2023-05-03T21:38:41.952Z,1.2
2023-05-03T21:39:58.083Z,1.3
2023-05-03T21:41:14.226Z,1.2
2023-05-03T21:42:30.344Z,0.9
2023-05-03T21:50:07.168Z,1.2
2023-05-03T21:51:22.323Z,1.1
2023-05-03T21:53:54.627Z,1.5
2023-05-03T21:55:10.714Z,1.1
2023-05-03T21:57:42.988Z,1.3
2023-05-03T21:58:59.168Z,1.1
2023-05-03T22:02:47.529Z,1.1
2023-05-03T22:04:03.675Z,1
2023-05-03T22:05:19.807Z,1.2
2023-05-03T22:06:35.980Z,1.2
2023-05-03T22:09:07.223Z,1
2023-05-03T22:10:23.355Z,1
2023-05-03T22:12:55.625Z,1
2023-05-03T22:14:11.808Z,1.1
2023-05-03T22:16:44.047Z,1.2
2023-05-03T22:18:00.167Z,1.1
2023-05-03T22:20:32.436Z,1.3
2023-05-03T22:25:36.979Z,1.2
2023-05-03T22:28:08.271Z,1.1
2023-05-03T22:29:24.417Z,1
2023-05-03T22:31:56.720Z,1.2
2023-05-03T22:33:12.807Z,0.8
2023-05-03T22:35:44.099Z,1.1
2023-05-03T22:39:31.574Z,1.2
2023-05-03T22:42:03.803Z,1
2023-05-03T22:43:18.960Z,1.1
2023-05-03T22:48:23.498Z,1.1
2023-05-03T22:49:39.678Z,1.2
2023-05-03T22:50:55.772Z,1.1
2023-05-03T22:52:11.949Z,1.1
2023-05-03T22:54:44.170Z,1.1
2023-05-03T22:58:32.573Z,1
2023-05-03T23:03:36.129Z,1.4
2023-05-03T23:06:08.410Z,1.2
2023-05-03T23:07:24.544Z,1.1
2023-05-03T23:11:12.945Z,0.9
2023-05-03T23:13:45.220Z,1.3
2023-05-03T23:15:01.401Z,1.1
2023-05-03T23:17:33.671Z,1.2
2023-05-03T23:21:22.029Z,1.2
2023-05-03T23:26:25.593Z,1
2023-05-03T23:28:57.862Z,1.3
2023-05-03T23:32:46.260Z,0.9
2023-05-03T23:34:02.400Z,1.1
2023-05-03T23:36:34.680Z,1.2
2023-05-03T23:40:23.124Z,1.2
2023-05-03T23:41:39.205Z,1.3
2023-05-03T23:44:10.492Z,1.1
2023-05-03T23:45:26.635Z,1
2023-05-03T23:49:15.035Z,1.2
2023-05-03T23:51:47.315Z,1.1
2023-05-03T23:53:03.493Z,1.3
2023-05-03T23:55:35.764Z,1.1
2023-05-03T23:56:51.855Z,1.4
2023-05-03T23:58:07.995Z,1
2023-05-03T23:59:24.133Z,0.9
